Time;durP1;ratioP1;P1;durP2;ratioP2;P2;SDS_P1;SDS_P2;PMS_P1;PMS_P2;Temp;Humidity;BMP_temperature;BMP_pressure;BME280_temperature;BME280_humidity;BME280_pressure;Samples;Min_cycle;Max_cycle;Signal;HPM_P1;HPM_P2
2022/07/10 00:05:22;;;;;;;2.05;1.48;;;;;;;15.19;89.46;98334.53;18502758;32;20073;-61
2022/07/10 00:15:25;;;;;;;3.07;1.70;;;;;;;15.24;90.35;98360.94;18488412;32;20075;-62
2022/07/10 00:25:28;;;;;;;2.17;1.60;;;;;;;15.31;89.67;98361.44;18487870;32;20460;-62
2022/07/10 00:35:30;;;;;;;2.28;1.62;;;;;;;15.24;90.75;98356.31;18500834;32;20096;-62
2022/07/10 00:45:33;;;;;;;2.95;1.55;;;;;;;15.18;91.81;98360.19;18500551;32;20334;-62
2022/07/10 00:55:37;;;;;;;3.15;2.00;;;;;;;15.22;91.39;98357.69;18499477;32;20389;-62
2022/07/10 01:05:39;;;;;;;2.85;1.98;;;;;;;15.39;89.54;98357.31;18499398;32;20057;-62
2022/07/10 01:15:42;;;;;;;2.53;1.70;;;;;;;15.33;89.89;98361.94;18497801;32;20401;-62
2022/07/10 01:25:45;;;;;;;4.30;2.03;;;;;;;15.24;90.48;98366.41;18498027;32;20066;-62
2022/07/10 01:35:47;;;;;;;2.08;1.60;;;;;;;15.03;91.47;98354.81;18497318;32;20149;-62
2022/07/10 01:45:51;;;;;;;2.10;1.50;;;;;;;14.87;92.91;98363.09;18497039;32;20441;-62
2022/07/10 01:55:53;;;;;;;3.10;2.20;;;;;;;14.72;93.59;98355.00;18496070;32;20377;-62
2022/07/10 02:05:57;;;;;;;2.80;1.80;;;;;;;14.60;94.21;98365.38;18496238;32;20108;-62
2022/07/10 02:15:59;;;;;;;6.12;2.47;;;;;;;14.46;95.04;98370.59;18481562;32;20110;-62
2022/07/10 02:26:02;;;;;;;3.95;2.78;;;;;;;14.42;96.13;98373.06;18505053;32;20057;-61
2022/07/10 02:36:05;;;;;;;4.30;2.55;;;;;;;14.40;96.57;98383.41;18508149;32;20060;-61
2022/07/10 02:46:07;;;;;;;3.10;2.70;;;;;;;14.31;97.29;98372.28;18493807;32;20073;-62
2022/07/10 02:56:10;;;;;;;2.95;2.62;;;;;;;14.23;97.65;98372.84;18506803;32;20094;-62
2022/07/10 03:06:12;;;;;;;5.20;2.50;;;;;;;14.16;98.18;98367.69;18505492;32;20467;-61
2022/07/10 03:16:15;;;;;;;2.50;2.20;;;;;;;14.12;99.02;98376.72;18505973;32;20084;-62
2022/07/10 03:26:17;;;;;;;2.47;2.27;;;;;;;14.05;99.45;98363.37;18505338;32;20113;-62
2022/07/10 03:36:20;;;;;;;2.65;2.45;;;;;;;14.02;99.75;98361.22;18503625;32;20048;-62
2022/07/10 03:46:22;;;;;;;3.33;2.80;;;;;;;13.91;99.73;98355.00;18504003;32;20452;-62
2022/07/10 04:06:45;;;;;;;3.10;2.80;;;;;;;13.81;100.00;98350.38;18503024;32;20392;-62
2022/07/10 04:16:48;;;;;;;4.50;3.00;;;;;;;13.80;100.00;98348.75;18488128;32;20048;-62
2022/07/10 04:26:50;;;;;;;3.57;2.53;;;;;;;13.89;100.00;98346.28;18501629;32;20053;-62
2022/07/10 04:36:52;;;;;;;2.42;2.22;;;;;;;13.98;100.00;98354.72;18501145;32;20048;-61
2022/07/10 04:46:54;;;;;;;3.65;2.20;;;;;;;14.29;100.00;98362.78;18499096;32;20357;-61
2022/07/10 04:56:57;;;;;;;5.35;2.78;;;;;;;14.62;100.00;98355.00;18499467;32;20100;-62
2022/07/10 05:06:59;;;;;;;5.10;3.75;;;;;;;15.05;99.36;98355.37;18499122;32;20465;-62
2022/07/10 05:17:01;;;;;;;3.83;3.25;;;;;;;15.70;96.48;98370.66;18498339;32;20105;-62
2022/07/10 05:27:04;;;;;;;4.53;3.83;;;;;;;16.05;94.72;98366.00;18498174;32;20072;-62
2022/07/10 05:37:07;;;;;;;4.45;3.20;;;;;;;16.03;92.56;98379.94;18497258;32;20129;-62
2022/07/10 05:47:09;;;;;;;3.53;2.90;;;;;;;16.08;94.09;98379.84;18497306;32;20038;-62
2022/07/10 05:57:11;;;;;;;5.00;3.40;;;;;;;16.04;94.60;98389.72;18429990;32;20046;-63
2022/07/10 06:07:14;;;;;;;7.72;3.72;;;;;;;16.26;94.27;98382.94;18431787;32;20365;-62
2022/07/10 06:17:16;;;;;;;4.50;3.45;;;;;;;17.01;90.99;98397.09;18431316;32;20049;-62
2022/07/10 06:27:19;;;;;;;7.45;4.65;;;;;;;17.85;85.71;98410.00;18431004;32;20054;-62
2022/07/10 06:37:22;;;;;;;5.50;4.28;;;;;;;18.39;82.22;98417.81;18431197;32;20072;-62
2022/07/10 06:57:45;;;;;;;4.47;3.30;;;;;;;18.62;79.16;98429.69;18488878;32;20137;-62
2022/07/10 07:07:48;;;;;;;6.60;2.25;;;;;;;18.69;76.53;98432.03;18484291;32;20105;-62
2022/07/10 07:17:56;;;;;;;3.42;2.55;;;;;;;18.52;75.86;98432.66;18505870;32;20084;-62
2022/07/10 07:27:59;;;;;;;3.47;2.45;;;;;;;19.45;72.31;98440.56;18505581;32;20421;-62
2022/07/10 07:38:03;;;;;;;3.17;2.07;;;;;;;19.39;72.42;98439.06;18490527;32;20086;-62
2022/07/10 07:48:07;;;;;;;5.37;2.28;;;;;;;19.70;71.22;98440.28;18504042;32;20437;-62
2022/07/10 07:58:09;;;;;;;2.72;1.52;;;;;;;20.29;66.27;98443.75;18450063;32;20049;-62
2022/07/10 08:08:11;;;;;;;2.17;1.75;;;;;;;20.67;67.36;98444.41;18438825;32;20482;-61
2022/07/10 08:18:14;;;;;;;3.70;2.23;;;;;;;20.85;65.17;98435.09;18437313;32;20053;-62
2022/07/10 08:28:17;;;;;;;3.30;2.27;;;;;;;21.13;62.09;98426.59;18436142;32;20050;-62
2022/07/10 08:38:25;;;;;;;4.03;2.60;;;;;;;21.26;64.00;98422.87;18423140;32;20065;-62
2022/07/10 08:48:31;;;;;;;2.95;2.30;;;;;;;21.25;60.24;98424.00;18434725;32;20399;-62
2022/07/10 08:58:36;;;;;;;2.75;2.25;;;;;;;21.56;63.79;98417.59;18446550;32;20046;-62
2022/07/10 09:09:02;;;;;;;5.65;2.40;;;;;;;21.62;61.00;98419.03;18434759;32;20080;-62
2022/07/10 09:19:25;;;;;;;3.37;2.50;;;;;;;21.15;63.96;98419.62;18432181;32;20053;-62
2022/07/10 09:29:27;;;;;;;;;;;;;;;21.79;60.28;98414.66;18433299;32;20089;-62
2022/07/10 09:39:32;;;;;;;5.70;2.12;;;;;;;22.42;60.90;98422.44;18433043;32;20020;-62
2022/07/10 09:49:34;;;;;;;2.33;1.95;;;;;;;22.93;57.45;98415.06;18436663;32;20060;-62
2022/07/10 09:59:38;;;;;;;;;;;;;;;23.24;57.38;98413.09;18496796;32;20068;-61
2022/07/10 10:09:56;;;;;;;2.87;1.47;;;;;;;23.67;56.99;98412.75;18496014;32;19954;-62
2022/07/10 10:30:22;;;;;;;4.43;1.97;;;;;;;23.15;52.40;98388.34;18495383;32;20101;-62
2022/07/10 10:40:34;;;;;;;2.37;1.52;;;;;;;23.82;51.57;98385.66;18496925;32;20045;-62
2022/07/10 10:50:41;;;;;;;3.53;1.67;;;;;;;24.37;51.77;98376.09;18506421;32;20061;-62
2022/07/10 11:00:44;;;;;;;2.00;1.60;;;;;;;24.77;47.35;98385.69;18507198;32;20064;-62
2022/07/10 11:10:47;;;;;;;4.47;2.00;;;;;;;25.01;50.51;98367.44;18479803;32;20113;-61
2022/07/10 11:20:55;;;;;;;3.72;1.83;;;;;;;25.20;44.89;98372.34;18504613;32;20057;-62
2022/07/10 11:30:58;;;;;;;2.65;1.80;;;;;;;25.27;46.25;98357.91;18505471;32;20044;-62
2022/07/10 11:41:01;;;;;;;2.45;1.60;;;;;;;25.39;48.07;98337.72;18504758;32;20087;-62
2022/07/10 11:51:18;;;;;;;2.92;1.62;;;;;;;25.26;46.75;98334.19;18502679;32;20101;-61
2022/07/10 12:01:22;;;;;;;3.97;1.67;;;;;;;25.79;46.89;98340.44;18503436;32;20053;-61
2022/07/10 12:11:24;;;;;;;2.58;1.60;;;;;;;26.17;44.37;98346.56;18502781;32;20187;-61
2022/07/10 12:21:27;;;;;;;2.83;1.50;;;;;;;26.22;41.74;98337.97;18488080;32;20108;-61
2022/07/10 12:31:34;;;;;;;2.45;1.60;;;;;;;26.23;41.20;98322.97;18487669;32;20064;-61
2022/07/10 12:42:03;;;;;;;2.65;1.25;;;;;;;26.44;36.53;98335.72;18500975;32;20481;-61
2022/07/10 12:52:22;;;;;;;1.42;0.90;;;;;;;26.48;39.01;98333.84;18485789;32;20375;-61
2022/07/10 13:02:32;;;;;;;0.80;0.73;;;;;;;27.04;35.46;98330.78;18499583;32;20382;-61
2022/07/10 13:12:36;;;;;;;1.33;0.80;;;;;;;27.73;33.38;98327.38;18485126;32;20100;-61
2022/07/10 13:22:39;;;;;;;1.00;0.80;;;;;;;28.09;32.85;98320.91;18483774;32;20052;-61
2022/07/10 13:32:42;;;;;;;1.77;0.90;;;;;;;28.48;32.90;98317.97;18496814;32;20116;-61
2022/07/10 13:42:45;;;;;;;1.70;1.10;;;;;;;28.52;31.69;98318.81;18482865;32;20053;-61
2022/07/10 13:52:48;;;;;;;2.03;1.00;;;;;;;28.33;32.98;98309.37;18496447;32;20048;-61
2022/07/10 14:02:51;;;;;;;1.75;0.95;;;;;;;28.69;30.70;98315.50;18496119;32;20064;-61
2022/07/10 14:12:54;;;;;;;1.73;0.90;;;;;;;28.77;32.83;98315.63;18495947;32;20098;-61
2022/07/10 14:22:57;;;;;;;2.33;1.10;;;;;;;28.93;35.20;98309.84;18495082;32;20376;-61
2022/07/10 14:33:00;;;;;;;1.35;1.10;;;;;;;29.52;32.75;98305.44;18481456;32;20049;-61
2022/07/10 14:43:02;;;;;;;2.78;1.12;;;;;;;28.89;31.69;98318.19;18481062;32;20057;-61
2022/07/10 14:53:07;;;;;;;3.08;1.05;;;;;;;28.73;34.57;98312.78;18494425;32;20045;-61
2022/07/10 15:03:09;;;;;;;4.35;1.30;;;;;;;28.33;33.10;98298.25;18494217;32;20056;-61
2022/07/10 15:13:14;;;;;;;2.42;1.15;;;;;;;27.54;33.53;98296.88;18479015;32;20057;-61
2022/07/10 15:23:16;;;;;;;2.00;1.15;;;;;;;26.50;35.99;98301.00;18493887;32;20375;-61
2022/07/10 15:33:19;;;;;;;3.15;1.45;;;;;;;25.83;38.08;98283.16;18488101;32;20374;-61
2022/07/10 15:43:22;;;;;;;2.30;1.15;;;;;;;25.04;37.09;98283.75;18490618;32;20050;-61
2022/07/10 15:53:24;;;;;;;3.25;1.30;;;;;;;24.62;38.03;98273.81;18503508;32;20360;-61
2022/07/10 16:03:27;;;;;;;2.50;1.20;;;;;;;24.35;38.14;98267.88;18503344;32;20053;-61
2022/07/10 16:13:30;;;;;;;3.62;0.95;;;;;;;23.84;39.43;98275.66;18502788;32;20072;-61
2022/07/10 16:23:34;;;;;;;3.20;0.98;;;;;;;23.67;39.26;98266.41;18502118;32;20072;-61
2022/07/10 16:33:36;;;;;;;1.25;0.82;;;;;;;23.58;39.28;98267.66;18487560;32;20044;-60
2022/07/10 16:43:39;;;;;;;2.33;0.90;;;;;;;23.69;37.82;98264.13;18500643;32;20091;-61
2022/07/10 16:53:42;;;;;;;1.60;0.90;;;;;;;23.64;38.31;98269.88;18499975;32;20041;-61
2022/07/10 17:04:06;;;;;;;0.90;0.52;;;;;;;23.31;39.24;98261.59;18488248;32;20098;-61
2022/07/10 17:14:08;;;;;;;;;;;;;;;22.93;39.41;98262.59;18485280;32;20057;-61
2022/07/10 17:24:12;;;;;;;2.03;0.80;;;;;;;22.78;38.84;98256.53;18498503;32;19963;-61
2022/07/10 17:34:16;;;;;;;0.75;0.50;;;;;;;22.68;39.01;98267.97;18483858;32;20094;-61
2022/07/10 17:44:20;;;;;;;1.55;0.50;;;;;;;22.53;41.42;98276.81;18497483;32;20152;-61
2022/07/10 17:54:23;;;;;;;0.90;0.40;;;;;;;22.16;40.18;98269.09;18494799;32;20048;-61
2022/07/10 18:04:26;;;;;;;2.05;0.35;;;;;;;;;;18496311;32;20467;-62
2022/07/10 18:14:29;;;;;;;0.95;0.50;;;;;;;25.53;33.77;98289.09;18496350;32;20088;-62
2022/07/10 18:24:32;;;;;;;0.65;0.30;;;;;;;27.64;28.37;98299.06;18481540;32;20071;-62
2022/07/10 18:34:35;;;;;;;1.67;0.32;;;;;;;23.43;37.52;98291.19;18468719;32;20073;-62
2022/07/10 18:44:38;;;;;;;;;;;;;;;21.74;39.18;98290.97;18481665;32;20126;-62
2022/07/10 18:54:41;;;;;;;2.85;0.85;;;;;;;20.86;42.02;98279.22;18467659;32;19936;-62
2022/07/10 19:04:45;;;;;;;0.75;0.25;;;;;;;20.42;43.24;98290.12;18500314;32;20042;-62
2022/07/10 19:14:50;;;;;;;2.53;0.60;;;;;;;20.08;44.37;98291.69;18492989;32;20380;-61
2022/07/10 19:24:53;;;;;;;1.27;0.52;;;;;;;19.74;45.79;98302.16;18491505;32;20356;-61
2022/07/10 19:34:57;;;;;;;0.87;0.40;;;;;;;19.48;47.65;98302.81;18491500;32;20045;-61
2022/07/10 19:45:03;;;;;;;2.25;0.50;;;;;;;19.09;49.50;98308.97;18504580;32;20171;-62
2022/07/10 19:55:08;;;;;;;0.67;0.50;;;;;;;18.66;50.35;98310.19;18489673;32;20041;-61
2022/07/10 20:05:11;;;;;;;0.90;0.40;;;;;;;18.56;51.13;98326.88;18502306;32;20421;-61
2022/07/10 20:15:14;;;;;;;2.00;0.63;;;;;;;18.15;53.17;98331.25;18501929;32;20057;-61
2022/07/10 20:25:17;;;;;;;0.60;0.40;;;;;;;17.83;55.01;98334.81;18488359;32;20445;-61
2022/07/10 20:35:24;;;;;;;1.67;0.70;;;;;;;17.62;56.49;98330.53;18487458;32;20064;-61
2022/07/10 20:45:40;;;;;;;1.08;0.68;;;;;;;17.42;55.23;98325.41;18499859;32;20071;-62
2022/07/10 20:55:51;;;;;;;3.37;0.70;;;;;;;17.27;56.79;98338.22;18499587;32;20041;-62
2022/07/10 21:05:53;;;;;;;2.95;1.00;;;;;;;16.98;62.63;98346.59;18472639;32;20191;-62
2022/07/10 21:15:56;;;;;;;3.03;1.40;;;;;;;16.64;65.30;98344.03;18499159;32;20103;-62
2022/07/10 21:25:59;;;;;;;0.80;0.73;;;;;;;16.27;67.85;98365.47;18484648;32;20084;-62
2022/07/10 21:36:02;;;;;;;1.85;0.60;;;;;;;15.90;69.48;98364.25;18497803;32;20073;-62
2022/07/10 21:46:06;;;;;;;1.67;0.75;;;;;;;15.62;70.39;98366.62;18496500;32;20120;-61
2022/07/10 21:56:09;;;;;;;1.02;0.70;;;;;;;15.35;72.45;98364.41;18482714;32;20108;-62
2022/07/10 22:06:11;;;;;;;6.78;0.93;;;;;;;15.02;73.19;98364.06;18496273;32;20041;-62
2022/07/10 22:16:14;;;;;;;4.37;0.80;;;;;;;14.77;74.19;98365.03;18494941;32;20064;-62
2022/07/10 22:26:16;;;;;;;2.75;0.68;;;;;;;14.48;75.00;98358.34;18495609;32;20467;-62
2022/07/10 22:36:19;;;;;;;2.37;0.80;;;;;;;14.22;76.79;98360.34;18482817;32;20067;-62
2022/07/10 22:46:23;;;;;;;2.17;0.90;;;;;;;14.05;78.32;98357.94;18508099;32;20065;-62
2022/07/10 22:56:26;;;;;;;;;;;;;;;13.90;79.26;98359.59;18507683;32;20094;-62
2022/07/10 23:06:28;;;;;;;2.10;0.83;;;;;;;13.71;79.68;98353.91;18507435;32;20233;-62
2022/07/10 23:16:30;;;;;;;2.47;1.00;;;;;;;13.55;80.93;98357.75;18492065;32;20131;-62
2022/07/10 23:26:33;;;;;;;1.17;0.83;;;;;;;13.36;81.14;98349.31;18505896;32;20045;-64
2022/07/10 23:36:35;;;;;;;0.80;0.80;;;;;;;13.16;81.99;98347.37;18491321;32;20106;-64
2022/07/10 23:46:37;;;;;;;1.73;0.80;;;;;;;13.03;82.57;98352.25;18490119;32;20045;-63
2022/07/10 23:56:39;;;;;;;1.50;0.83;;;;;;;12.85;83.03;98344.63;18489045;32;20128;-64
